Terminal Aerodrome Forecast
Issued by NWS Atlanta, GA

Home | Current Version | Previous Version | Text Only | Print | Product List | Glossary On
Versions: 1 2 3 4 5 6 7 8 9 10 11 12 13 14 15 16 17 18 19 20 21 22 23 24 25 26 27 28 29 30 31 32 33 34 35 36 37 38 39
000
FTUS42 KFFC 272331
TAFATL
TAF
KATL 272331Z 2800/2906 20010G17KT P6SM VCSH BKN045
      TEMPO 2802/2805 VRB15G25KT 3SM TSRA BR BKN025CB
     FM280500 20008KT 6SM -SHRA BR BKN040
     FM280800 21007KT 6SM BR VCSH OVC012
     FM281000 22007KT 6SM BR VCSH BKN006 OVC012
     FM281500 23010G16KT P6SM VCSH BKN020
     FM281800 23012G18KT P6SM VCSH BKN035
     FM282100 24010KT P6SM SCT050=

USA.gov is the U.S. government's official web portal to all federal, state and local government web resources and services.